createdAt,value
2017-04-09T00:00:07.395Z,42.74
2017-04-09T00:01:05.548Z,45.64
2017-04-09T00:02:03.657Z,42.49
2017-04-09T00:03:01.508Z,43.19
2017-04-09T00:03:59.783Z,41.31
2017-04-09T00:04:57.612Z,40.64
2017-04-09T00:05:57.405Z,40.56
2017-04-09T00:06:55.377Z,37.83
2017-04-09T00:07:53.477Z,41.89
2017-04-09T00:08:51.981Z,38.77
2017-04-09T00:09:50.710Z,41.70
2017-04-09T00:10:48.759Z,43.21
2017-04-09T00:11:46.575Z,43.43
2017-04-09T00:12:44.547Z,45.27
2017-04-09T00:13:42.471Z,46.39
2017-04-09T00:14:40.377Z,44.46
2017-04-09T00:15:38.255Z,45.56
2017-04-09T00:16:36.515Z,48.46
2017-04-09T00:17:34.722Z,41.50
2017-04-09T00:18:32.600Z,44.07
2017-04-09T00:19:30.505Z,43.89
2017-04-09T00:20:28.408Z,47.31
2017-04-09T00:21:26.255Z,44.39
2017-04-09T00:22:24.092Z,44.00
2017-04-09T00:23:21.951Z,46.29
2017-04-09T00:24:22.061Z,45.06
2017-04-09T00:25:20.794Z,43.20
2017-04-09T00:26:19.863Z,45.97
2017-04-09T00:27:17.985Z,43.54
2017-04-09T00:28:15.864Z,43.87
2017-04-09T00:29:13.771Z,42.16
2017-04-09T00:30:11.655Z,44.03
2017-04-09T00:31:10.081Z,42.11
2017-04-09T00:32:07.937Z,45.96
2017-04-09T00:33:05.962Z,42.59
2017-04-09T00:34:05.105Z,45.13
2017-04-09T00:35:03.656Z,42.80
2017-04-09T00:36:01.508Z,44.24
2017-04-09T00:36:59.344Z,42.56
2017-04-09T00:37:57.184Z,44.04
2017-04-09T00:38:58.033Z,44.00
2017-04-09T00:39:58.623Z,42.89
2017-04-09T00:40:59.225Z,46.16
2017-04-09T00:41:58.688Z,46.63
2017-04-09T00:42:56.655Z,45.76
2017-04-09T00:43:56.998Z,50.49
2017-04-09T00:44:55.131Z,46.74
2017-04-09T00:45:54.221Z,48.96
2017-04-09T00:46:54.328Z,50.09
2017-04-09T00:47:56.527Z,43.57
2017-04-09T00:48:54.478Z,44.66
2017-04-09T00:49:52.302Z,46.46
2017-04-09T00:50:50.312Z,42.80
2017-04-09T00:51:48.295Z,45.13
2017-04-09T00:52:47.229Z,46.53
2017-04-09T00:53:46.879Z,47.35
2017-04-09T00:54:44.796Z,45.38
2017-04-09T00:55:43.017Z,48.93
2017-04-09T00:56:44.180Z,44.10
2017-04-09T00:57:43.112Z,45.95
2017-04-09T00:58:42.029Z,46.48
2017-04-09T00:59:40.736Z,45.08
2017-04-09T01:00:50.813Z,42.55
2017-04-09T01:01:51.200Z,43.00
2017-04-09T01:02:49.188Z,46.77
2017-04-09T01:03:47.038Z,44.41
2017-04-09T01:04:44.948Z,45.50
2017-04-09T01:05:44.740Z,46.11
2017-04-09T01:06:42.686Z,45.35
2017-04-09T01:07:41.376Z,46.42
2017-04-09T01:08:43.419Z,45.52
2017-04-09T01:09:41.881Z,47.20
2017-04-09T01:10:39.992Z,47.03
2017-04-09T01:11:37.977Z,46.63
2017-04-09T01:12:35.972Z,48.92
2017-04-09T01:13:34.534Z,49.19
2017-04-09T01:14:32.688Z,46.89
2017-04-09T01:15:31.369Z,46.47
2017-04-09T01:16:29.436Z,46.48
2017-04-09T01:17:27.656Z,44.56
2017-04-09T01:18:25.452Z,45.29
2017-04-09T01:19:24.669Z,47.19
2017-04-09T01:20:22.544Z,46.67
2017-04-09T01:21:20.404Z,48.39
2017-04-09T01:22:19.158Z,48.57
2017-04-09T01:23:18.204Z,44.70
2017-04-09T01:24:17.016Z,45.57
2017-04-09T01:25:15.849Z,47.08
2017-04-09T01:26:14.975Z,46.20
2017-04-09T01:27:12.851Z,47.00
2017-04-09T01:28:11.028Z,48.17
2017-04-09T01:29:08.992Z,47.77
2017-04-09T01:30:06.833Z,48.63
2017-04-09T01:31:04.779Z,46.73
2017-04-09T01:32:02.663Z,46.73
2017-04-09T01:33:00.522Z,44.83
2017-04-09T01:33:58.415Z,45.19
2017-04-09T01:34:56.272Z,47.64
2017-04-09T01:35:54.082Z,46.77
2017-04-09T01:36:51.974Z,48.59
2017-04-09T01:37:49.939Z,45.70
2017-04-09T01:38:47.722Z,45.38
2017-04-09T01:39:45.653Z,45.17
2017-04-09T01:40:43.440Z,44.54
2017-04-09T01:41:41.520Z,45.90
2017-04-09T01:42:39.374Z,50.14
2017-04-09T01:43:39.388Z,48.66
2017-04-09T01:44:37.316Z,48.53
2017-04-09T01:45:35.152Z,46.81
2017-04-09T01:46:33.028Z,47.30
2017-04-09T01:47:30.904Z,49.23
2017-04-09T01:48:28.788Z,48.49
2017-04-09T01:49:26.725Z,48.10
2017-04-09T01:50:24.563Z,48.49
2017-04-09T01:51:22.406Z,46.17
2017-04-09T01:52:20.291Z,51.37
2017-04-09T01:53:18.136Z,48.70
2017-04-09T01:54:16.147Z,49.27
2017-04-09T01:55:14.004Z,47.69
2017-04-09T01:56:11.989Z,50.70
2017-04-09T01:57:09.782Z,51.04
2017-04-09T01:58:07.741Z,49.59
2017-04-09T01:59:05.591Z,51.84
2017-04-09T02:00:03.528Z,52.87
2017-04-09T02:01:01.417Z,49.30
2017-04-09T02:01:59.286Z,50.24
2017-04-09T02:02:57.092Z,51.10
2017-04-09T02:03:54.970Z,48.26
2017-04-09T02:04:52.857Z,50.99
2017-04-09T02:05:50.792Z,48.65
2017-04-09T02:06:48.668Z,46.67
2017-04-09T02:07:46.540Z,47.13
2017-04-09T02:08:44.365Z,46.07
2017-04-09T02:09:42.384Z,46.91
2017-04-09T02:10:40.312Z,47.80
2017-04-09T02:11:38.212Z,48.81
2017-04-09T02:12:36.044Z,45.93
2017-04-09T02:13:33.894Z,46.22
2017-04-09T02:14:31.812Z,45.97
2017-04-09T02:15:29.656Z,49.16
2017-04-09T02:16:27.699Z,47.25
2017-04-09T02:17:25.544Z,47.01
2017-04-09T02:18:23.434Z,44.33
2017-04-09T02:19:21.231Z,43.86
2017-04-09T02:20:19.097Z,45.73
2017-04-09T02:21:17.001Z,47.27
2017-04-09T02:22:14.923Z,44.56
2017-04-09T02:23:12.787Z,42.56
2017-04-09T02:24:10.658Z,42.77
2017-04-09T02:25:08.681Z,44.10
2017-04-09T02:26:06.567Z,46.61
2017-04-09T02:27:04.529Z,44.50
2017-04-09T02:28:02.443Z,44.27
2017-04-09T02:29:01.848Z,45.47
2017-04-09T02:30:05.752Z,45.46
2017-04-09T02:31:04.469Z,45.68
2017-04-09T02:32:02.365Z,46.76
2017-04-09T02:33:06.328Z,46.72
2017-04-09T02:34:10.455Z,44.37
2017-04-09T02:35:15.037Z,46.51
2017-04-09T02:36:16.861Z,44.91
2017-04-09T02:37:15.986Z,47.43
2017-04-09T02:38:14.619Z,46.80
2017-04-09T02:39:14.692Z,48.66
2017-04-09T02:40:12.621Z,44.71
2017-04-09T02:41:13.878Z,48.37
2017-04-09T02:42:12.175Z,46.97
2017-04-09T02:43:10.097Z,49.34
2017-04-09T02:44:08.300Z,46.27
2017-04-09T02:45:11.869Z,49.23
2017-04-09T02:46:09.897Z,47.27
2017-04-09T02:47:07.761Z,48.67
2017-04-09T02:48:05.615Z,43.93
2017-04-09T02:49:03.609Z,45.33
2017-04-09T02:50:07.472Z,43.59
2017-04-09T02:51:09.655Z,45.72
2017-04-09T02:52:13.024Z,47.06
2017-04-09T02:53:17.602Z,45.21
2017-04-09T02:54:19.713Z,42.98
2017-04-09T02:55:17.814Z,46.33
2017-04-09T02:56:15.673Z,45.83
2017-04-09T02:57:13.555Z,47.43
2017-04-09T02:58:11.777Z,45.03
2017-04-09T02:59:09.639Z,46.79
2017-04-09T03:00:09.434Z,45.49
2017-04-09T03:01:09.125Z,45.71
2017-04-09T03:02:11.118Z,46.70
2017-04-09T03:03:09.348Z,48.94
2017-04-09T03:04:07.249Z,46.16
2017-04-09T03:05:05.147Z,48.41
2017-04-09T03:06:03.048Z,47.94
2017-04-09T03:07:00.874Z,48.73
2017-04-09T03:07:58.759Z,45.30
2017-04-09T03:08:56.629Z,46.75
2017-04-09T03:09:54.595Z,46.42
2017-04-09T03:10:52.479Z,43.66
2017-04-09T03:11:50.317Z,46.93
2017-04-09T03:12:48.254Z,47.59
2017-04-09T03:13:46.050Z,46.54
2017-04-09T03:14:43.996Z,47.54
2017-04-09T03:15:41.805Z,47.09
2017-04-09T03:16:39.796Z,45.97
2017-04-09T03:17:37.740Z,46.65
2017-04-09T03:18:35.617Z,47.15
2017-04-09T03:19:33.538Z,47.27
2017-04-09T03:20:31.437Z,47.89
2017-04-09T03:21:29.288Z,49.01
2017-04-09T03:22:27.116Z,47.03
2017-04-09T03:23:24.929Z,49.16
2017-04-09T03:24:22.874Z,46.89
2017-04-09T03:25:20.690Z,47.76
2017-04-09T03:26:18.588Z,44.37
2017-04-09T03:27:16.443Z,46.88
2017-04-09T03:28:14.294Z,46.33
2017-04-09T03:29:12.162Z,45.33
2017-04-09T03:30:10.135Z,46.33
2017-04-09T03:31:07.999Z,44.93
2017-04-09T03:32:05.863Z,43.66
2017-04-09T03:33:03.707Z,44.27
2017-04-09T03:34:01.550Z,43.08
2017-04-09T03:34:59.545Z,46.59
2017-04-09T03:35:59.188Z,44.93
2017-04-09T03:36:57.022Z,43.47
2017-04-09T03:37:54.927Z,45.72
2017-04-09T03:38:52.741Z,44.34
2017-04-09T03:39:50.559Z,48.26
2017-04-09T03:40:48.524Z,45.77
2017-04-09T03:41:46.376Z,44.40
2017-04-09T03:42:44.207Z,44.53
2017-04-09T03:43:42.090Z,43.86
2017-04-09T03:44:39.918Z,43.12
2017-04-09T03:45:37.827Z,44.24
2017-04-09T03:46:35.632Z,42.57
2017-04-09T03:47:33.631Z,44.78
2017-04-09T03:48:31.489Z,47.24
2017-04-09T03:49:29.320Z,43.60
2017-04-09T03:50:27.115Z,46.12
2017-04-09T03:51:24.988Z,46.33
2017-04-09T03:52:22.798Z,46.05
2017-04-09T03:53:20.756Z,46.03
2017-04-09T03:54:18.648Z,44.81
2017-04-09T03:55:16.440Z,44.27
2017-04-09T03:56:14.327Z,43.70
2017-04-09T03:57:12.143Z,44.94
2017-04-09T03:58:10.200Z,45.67
2017-04-09T03:59:08.024Z,47.55
2017-04-09T04:00:05.989Z,45.48
2017-04-09T04:01:03.899Z,46.03
2017-04-09T04:02:01.656Z,46.04
2017-04-09T04:02:59.547Z,44.33
2017-04-09T04:03:57.522Z,43.71
2017-04-09T04:04:55.353Z,44.78
2017-04-09T04:05:53.196Z,44.93
2017-04-09T04:06:51.130Z,45.27
2017-04-09T04:07:50.615Z,44.91
2017-04-09T04:08:48.436Z,45.07
2017-04-09T04:09:46.530Z,43.79
2017-04-09T04:10:44.443Z,42.45
2017-04-09T04:11:42.292Z,43.50
2017-04-09T04:12:40.128Z,43.27
2017-04-09T04:13:37.969Z,45.84
2017-04-09T04:14:35.849Z,41.79
2017-04-09T04:15:33.645Z,43.93
2017-04-09T04:16:31.438Z,45.93
2017-04-09T04:17:29.312Z,47.33
2017-04-09T04:18:27.191Z,45.54
2017-04-09T04:19:25.007Z,45.00
2017-04-09T04:20:22.920Z,46.27
2017-04-09T04:21:20.777Z,47.83
2017-04-09T04:22:18.598Z,49.53
2017-04-09T04:23:17.949Z,47.94
2017-04-09T04:24:15.936Z,47.49
2017-04-09T04:25:13.737Z,49.50
2017-04-09T04:26:11.683Z,51.18
2017-04-09T04:27:09.528Z,48.03
2017-04-09T04:28:07.426Z,49.67
2017-04-09T04:29:05.278Z,49.07
2017-04-09T04:30:03.164Z,47.58
2017-04-09T04:31:01.137Z,45.84
2017-04-09T04:31:59.003Z,47.37
2017-04-09T04:32:56.871Z,48.62
2017-04-09T04:33:54.721Z,47.66
2017-04-09T04:34:52.547Z,45.33
2017-04-09T04:35:50.483Z,48.16
2017-04-09T04:36:48.307Z,45.68
2017-04-09T04:37:46.307Z,48.22
2017-04-09T04:38:44.147Z,47.88
2017-04-09T04:39:42.107Z,47.50
2017-04-09T04:40:39.946Z,45.93
2017-04-09T04:41:37.756Z,47.61
2017-04-09T04:42:35.632Z,46.12
2017-04-09T04:43:33.474Z,46.52
2017-04-09T04:44:31.439Z,44.92
2017-04-09T04:45:29.265Z,44.98
2017-04-09T04:46:27.271Z,46.65
2017-04-09T04:47:25.152Z,46.39
2017-04-09T04:48:22.993Z,46.14
2017-04-09T04:49:20.911Z,47.40
2017-04-09T04:50:18.863Z,46.63
2017-04-09T04:51:16.741Z,45.02
2017-04-09T04:52:14.560Z,47.27
2017-04-09T04:53:12.528Z,47.83
2017-04-09T04:54:10.384Z,47.10
2017-04-09T04:55:08.207Z,48.48
2017-04-09T04:56:06.131Z,51.27
2017-04-09T04:57:03.992Z,50.35
2017-04-09T04:58:01.924Z,46.18
2017-04-09T04:58:59.744Z,50.42
2017-04-09T04:59:57.730Z,47.90
2017-04-09T05:00:55.596Z,48.45
2017-04-09T05:01:53.412Z,47.95
2017-04-09T05:02:51.346Z,49.25
2017-04-09T05:03:49.135Z,46.78
2017-04-09T05:04:47.159Z,50.37
2017-04-09T05:05:45.012Z,49.42
2017-04-09T05:06:42.955Z,52.01
2017-04-09T05:07:40.849Z,51.57
2017-04-09T05:08:38.719Z,48.69
2017-04-09T05:09:36.583Z,53.27
2017-04-09T05:10:34.363Z,48.75
2017-04-09T05:11:32.371Z,52.55
2017-04-09T05:12:30.218Z,52.25
2017-04-09T05:13:28.141Z,51.17
2017-04-09T05:14:26.011Z,47.45
2017-04-09T05:15:23.836Z,49.77
2017-04-09T05:16:21.751Z,51.52
2017-04-09T05:17:19.599Z,54.53
2017-04-09T05:18:17.513Z,50.90
2017-04-09T05:19:15.334Z,50.99
2017-04-09T05:20:13.328Z,54.97
2017-04-09T05:21:11.187Z,52.54
2017-04-09T05:22:09.004Z,50.90
2017-04-09T05:23:06.898Z,49.95
2017-04-09T05:24:04.743Z,49.88
2017-04-09T05:25:02.712Z,48.53
2017-04-09T05:26:00.524Z,47.99
2017-04-09T05:26:58.543Z,48.53
2017-04-09T05:27:56.375Z,50.05
2017-04-09T05:28:54.168Z,48.78
2017-04-09T05:29:52.148Z,47.17
2017-04-09T05:30:49.963Z,48.67
2017-04-09T05:31:47.952Z,50.47
2017-04-09T05:32:45.776Z,47.57
2017-04-09T05:33:43.727Z,48.02
2017-04-09T05:34:41.603Z,50.18
2017-04-09T05:35:39.423Z,48.67
2017-04-09T05:36:37.292Z,51.35
2017-04-09T05:37:35.154Z,49.25
2017-04-09T05:38:33.090Z,52.37
2017-04-09T05:39:30.951Z,50.25
2017-04-09T05:40:28.880Z,54.33
2017-04-09T05:41:26.759Z,50.37
2017-04-09T05:42:24.573Z,52.45
2017-04-09T05:43:22.517Z,49.38
2017-04-09T05:44:20.357Z,48.70
2017-04-09T05:45:18.341Z,51.48
2017-04-09T05:46:16.221Z,49.42
2017-04-09T05:47:14.137Z,49.68
2017-04-09T05:48:12.014Z,48.90
2017-04-09T05:49:09.857Z,46.08
2017-04-09T05:50:07.739Z,47.72
2017-04-09T05:51:05.558Z,46.75
2017-04-09T05:52:03.542Z,47.86
2017-04-09T05:53:01.405Z,45.57
2017-04-09T05:53:59.291Z,48.12
2017-04-09T05:54:57.192Z,46.58
2017-04-09T05:55:54.991Z,50.65
2017-04-09T05:56:52.973Z,46.86
2017-04-09T05:57:51.660Z,48.33
2017-04-09T05:58:49.639Z,48.30
2017-04-09T05:59:47.470Z,51.66
2017-04-09T06:00:45.353Z,50.20
2017-04-09T06:01:43.212Z,48.50
2017-04-09T06:02:41.137Z,49.23
2017-04-09T06:03:38.965Z,49.27
2017-04-09T06:04:36.785Z,48.64
2017-04-09T06:05:34.845Z,51.85
2017-04-09T06:06:32.708Z,51.62
2017-04-09T06:07:30.522Z,49.32
2017-04-09T06:08:28.387Z,51.80
2017-04-09T06:09:26.199Z,56.33
2017-04-09T06:10:24.372Z,53.00
2017-04-09T06:11:22.242Z,56.29
2017-04-09T06:12:20.082Z,55.07
2017-04-09T06:13:17.929Z,53.27
2017-04-09T06:14:15.748Z,55.00
2017-04-09T06:15:13.588Z,56.09
2017-04-09T06:16:11.436Z,53.59
2017-04-09T06:17:09.356Z,58.33
2017-04-09T06:18:07.211Z,60.57
2017-04-09T06:19:05.128Z,58.83
2017-04-09T06:20:02.991Z,60.47
2017-04-09T06:21:00.845Z,57.83
2017-04-09T06:21:58.742Z,53.51
2017-04-09T06:22:56.568Z,57.56
2017-04-09T06:23:54.532Z,58.46
2017-04-09T06:24:52.392Z,56.44
2017-04-09T06:25:50.317Z,61.06
2017-04-09T06:26:48.237Z,59.50
2017-04-09T06:27:46.088Z,60.31
2017-04-09T06:28:43.984Z,64.73
2017-04-09T06:29:41.855Z,62.12
2017-04-09T06:30:39.815Z,61.87
2017-04-09T06:31:37.662Z,61.06
2017-04-09T06:32:35.529Z,58.74
2017-04-09T06:33:33.400Z,59.20
2017-04-09T06:34:31.312Z,59.57
2017-04-09T06:35:29.172Z,58.56
2017-04-09T06:36:26.976Z,59.11
2017-04-09T06:37:24.926Z,59.54
2017-04-09T06:38:22.777Z,60.54
2017-04-09T06:39:20.772Z,61.02
2017-04-09T06:40:18.669Z,62.21
2017-04-09T06:41:16.555Z,66.37
2017-04-09T06:42:14.399Z,57.19
2017-04-09T06:43:12.238Z,61.01
2017-04-09T06:44:10.119Z,61.86
2017-04-09T06:45:07.967Z,62.17
2017-04-09T06:46:05.976Z,63.30
2017-04-09T06:47:03.840Z,64.56
2017-04-09T06:48:01.679Z,64.56
2017-04-09T06:48:59.642Z,67.54
2017-04-09T06:49:57.458Z,63.91
2017-04-09T06:50:55.491Z,63.03
2017-04-09T06:51:53.408Z,61.63
2017-04-09T06:52:51.316Z,60.07
2017-04-09T06:53:49.159Z,67.64
2017-04-09T06:54:46.957Z,62.77
2017-04-09T06:55:44.913Z,62.90
2017-04-09T06:56:42.760Z,59.64
2017-04-09T06:57:40.726Z,61.67
2017-04-09T06:58:38.553Z,62.46
2017-04-09T06:59:36.524Z,61.76
2017-04-09T07:00:34.331Z,60.57
2017-04-09T07:01:32.144Z,62.61
2017-04-09T07:02:30.411Z,61.59
2017-04-09T07:03:28.261Z,65.70
2017-04-09T07:04:26.073Z,66.64
2017-04-09T07:05:27.330Z,62.50
2017-04-09T07:06:25.221Z,57.26
2017-04-09T07:07:23.146Z,62.06
2017-04-09T07:08:21.033Z,58.66
2017-04-09T07:09:18.885Z,64.77
2017-04-09T07:10:16.824Z,67.61
2017-04-09T07:11:14.667Z,59.89
2017-04-09T07:12:12.493Z,58.93
2017-04-09T07:13:10.471Z,64.74
2017-04-09T07:14:08.305Z,63.21
2017-04-09T07:15:06.252Z,62.07
2017-04-09T07:16:04.125Z,62.77
2017-04-09T07:17:02.104Z,63.41
2017-04-09T07:17:59.968Z,63.47
2017-04-09T07:18:57.793Z,64.26
2017-04-09T07:19:55.692Z,63.87
2017-04-09T07:20:54.412Z,62.61
2017-04-09T07:21:52.244Z,62.90
2017-04-09T07:22:50.233Z,66.20
2017-04-09T07:23:48.072Z,59.09
2017-04-09T07:24:45.872Z,61.66
2017-04-09T07:25:43.683Z,67.13
2017-04-09T07:26:41.669Z,66.07
2017-04-09T07:27:39.470Z,61.13
2017-04-09T07:28:37.719Z,63.83
2017-04-09T07:29:35.631Z,62.93
2017-04-09T07:30:33.473Z,63.79
2017-04-09T07:31:31.411Z,63.61
2017-04-09T07:32:29.236Z,64.09
2017-04-09T07:33:27.059Z,63.34
2017-04-09T07:34:24.971Z,61.43
2017-04-09T07:35:22.853Z,59.06
2017-04-09T07:36:20.723Z,59.93
2017-04-09T07:37:18.554Z,60.87
2017-04-09T07:38:16.367Z,61.86
2017-04-09T07:39:14.215Z,58.60
2017-04-09T07:40:12.072Z,61.09
2017-04-09T07:41:09.938Z,57.37
2017-04-09T07:42:07.869Z,59.17
2017-04-09T07:43:05.690Z,58.69
2017-04-09T07:44:03.516Z,60.03
2017-04-09T07:45:01.379Z,60.30
2017-04-09T07:46:00.163Z,60.84
2017-04-09T07:46:58.023Z,59.06
2017-04-09T07:47:55.903Z,58.90
2017-04-09T07:48:53.750Z,56.16
2017-04-09T07:49:51.577Z,58.17
2017-04-09T07:50:49.417Z,57.29
2017-04-09T07:51:47.378Z,54.69
2017-04-09T07:52:45.239Z,56.26
2017-04-09T07:53:43.165Z,57.03
2017-04-09T07:54:41.031Z,58.60
2017-04-09T07:55:38.837Z,53.11
2017-04-09T07:56:36.914Z,60.00
2017-04-09T07:57:34.760Z,56.14
2017-04-09T07:58:32.593Z,56.14
2017-04-09T07:59:30.423Z,58.17
2017-04-09T08:00:28.485Z,55.39
2017-04-09T08:01:26.416Z,53.13
2017-04-09T08:02:24.284Z,54.24
2017-04-09T08:03:22.231Z,55.01
2017-04-09T08:04:20.034Z,55.69
2017-04-09T08:05:17.887Z,56.51
2017-04-09T08:06:15.716Z,56.89
2017-04-09T08:07:15.720Z,53.63
2017-04-09T08:08:14.196Z,51.80
2017-04-09T08:09:12.228Z,53.96
2017-04-09T08:10:12.200Z,54.56
2017-04-09T08:11:10.498Z,51.90
2017-04-09T08:12:09.173Z,51.53
2017-04-09T08:13:07.060Z,53.20
2017-04-09T08:14:04.887Z,55.33
2017-04-09T08:15:02.867Z,55.80
2017-04-09T08:16:00.741Z,52.47
2017-04-09T08:16:58.527Z,51.49
2017-04-09T08:17:56.375Z,56.81
2017-04-09T08:18:54.214Z,55.06
2017-04-09T08:19:52.155Z,54.33
2017-04-09T08:20:49.992Z,53.84
2017-04-09T08:21:47.906Z,54.91
2017-04-09T08:22:45.769Z,52.64
2017-04-09T08:23:43.714Z,52.91
2017-04-09T08:24:41.567Z,52.56
2017-04-09T08:25:39.408Z,52.79
2017-04-09T08:26:37.337Z,52.56
2017-04-09T08:27:35.130Z,54.87
2017-04-09T08:28:33.112Z,55.53
2017-04-09T08:29:30.916Z,50.66
2017-04-09T08:30:28.879Z,55.19
2017-04-09T08:31:26.751Z,55.76
2017-04-09T08:32:24.601Z,54.27
2017-04-09T08:33:22.735Z,54.51
2017-04-09T08:34:20.548Z,56.33
2017-04-09T08:35:18.391Z,52.91
2017-04-09T08:36:16.216Z,53.39
2017-04-09T08:37:14.062Z,55.96
2017-04-09T08:38:11.976Z,55.69
2017-04-09T08:39:09.847Z,57.56
2017-04-09T08:40:07.845Z,55.99
2017-04-09T08:41:05.757Z,54.54
2017-04-09T08:42:03.646Z,57.84
2017-04-09T08:43:01.468Z,56.57
2017-04-09T08:43:59.312Z,59.87
2017-04-09T08:44:57.139Z,57.56
2017-04-09T08:45:55.091Z,58.57
2017-04-09T08:46:52.931Z,56.67
2017-04-09T08:47:50.759Z,58.10
2017-04-09T08:48:48.817Z,55.63
2017-04-09T08:49:46.668Z,54.27
2017-04-09T08:50:44.520Z,56.81
2017-04-09T08:51:42.533Z,57.00
2017-04-09T08:52:40.387Z,57.43
2017-04-09T08:53:38.240Z,58.79
2017-04-09T08:54:36.141Z,56.99
2017-04-09T08:55:34.028Z,58.04
2017-04-09T08:56:31.869Z,55.09
2017-04-09T08:57:29.717Z,57.39
2017-04-09T08:58:27.520Z,56.81
2017-04-09T08:59:25.382Z,56.03
2017-04-09T09:00:23.269Z,56.71
2017-04-09T09:01:21.134Z,57.31
2017-04-09T09:02:18.982Z,58.03
2017-04-09T09:03:16.849Z,59.06
2017-04-09T09:04:14.700Z,54.14
2017-04-09T09:05:12.572Z,53.77
2017-04-09T09:06:10.460Z,52.33
2017-04-09T09:07:08.313Z,53.63
2017-04-09T09:08:06.123Z,58.40
2017-04-09T09:09:06.363Z,55.93
2017-04-09T09:10:05.827Z,54.99
2017-04-09T09:11:03.736Z,55.97
2017-04-09T09:12:02.204Z,54.54
2017-04-09T09:13:00.636Z,55.90
2017-04-09T09:14:01.139Z,55.83
2017-04-09T09:14:59.407Z,53.26
2017-04-09T09:16:00.389Z,52.61
2017-04-09T09:16:59.882Z,53.69
2017-04-09T09:17:59.453Z,55.39
2017-04-09T09:19:04.721Z,54.96
2017-04-09T09:20:09.532Z,55.87
2017-04-09T09:21:08.643Z,54.20
2017-04-09T09:22:06.510Z,55.31
2017-04-09T09:23:04.691Z,54.60
2017-04-09T09:24:02.721Z,54.69
2017-04-09T09:25:00.578Z,54.47
2017-04-09T09:25:58.430Z,54.40
2017-04-09T09:26:56.257Z,52.74
2017-04-09T09:27:54.099Z,53.27
2017-04-09T09:28:51.944Z,55.54
2017-04-09T09:29:49.781Z,54.09
2017-04-09T09:30:47.600Z,52.36
2017-04-09T09:31:45.532Z,54.50
2017-04-09T09:32:43.364Z,53.93
2017-04-09T09:33:41.264Z,52.26
2017-04-09T09:34:39.551Z,54.11
2017-04-09T09:35:37.841Z,54.70
2017-04-09T09:36:35.676Z,51.70
2017-04-09T09:37:33.504Z,56.19
2017-04-09T09:38:31.361Z,52.43
2017-04-09T09:39:29.221Z,54.84
2017-04-09T09:40:27.048Z,55.24
2017-04-09T09:41:24.980Z,53.17
2017-04-09T09:42:22.835Z,54.83
2017-04-09T09:43:20.808Z,53.70
2017-04-09T09:44:18.620Z,55.76
2017-04-09T09:45:16.532Z,53.87
2017-04-09T09:46:14.410Z,52.61
2017-04-09T09:47:12.656Z,53.54
2017-04-09T09:48:10.456Z,54.64
2017-04-09T09:49:08.277Z,56.49
2017-04-09T09:50:06.257Z,53.76
2017-04-09T09:51:04.103Z,52.49
2017-04-09T09:52:01.962Z,54.91
2017-04-09T09:52:59.804Z,53.86
2017-04-09T09:53:57.649Z,51.96
2017-04-09T09:54:55.470Z,51.49
2017-04-09T09:55:53.315Z,50.96
2017-04-09T09:56:51.209Z,50.97
2017-04-09T09:57:48.987Z,51.84
2017-04-09T09:58:47.029Z,54.56
2017-04-09T09:59:44.860Z,53.60
2017-04-09T10:00:42.808Z,53.46
2017-04-09T10:01:41.428Z,52.29
2017-04-09T10:02:39.267Z,53.34
2017-04-09T10:03:37.200Z,52.84
2017-04-09T10:04:34.998Z,53.76
2017-04-09T10:05:32.969Z,51.24
2017-04-09T10:06:30.868Z,52.37
2017-04-09T10:07:28.824Z,50.96
2017-04-09T10:08:26.673Z,51.47
2017-04-09T10:09:24.748Z,48.40
2017-04-09T10:10:22.597Z,48.63
2017-04-09T10:11:20.453Z,49.27
2017-04-09T10:12:18.268Z,47.36
2017-04-09T10:13:16.036Z,47.84
2017-04-09T10:14:13.832Z,45.93
2017-04-09T10:15:11.681Z,48.60
2017-04-09T10:16:09.533Z,49.86
2017-04-09T10:17:07.340Z,49.89
2017-04-09T10:18:05.174Z,49.73
2017-04-09T10:19:02.960Z,47.49
2017-04-09T10:20:00.791Z,49.44
2017-04-09T10:20:58.603Z,50.30
2017-04-09T10:21:56.411Z,50.37
2017-04-09T10:22:54.320Z,51.67
2017-04-09T10:23:52.168Z,48.71
2017-04-09T10:24:50.028Z,47.09
2017-04-09T10:25:47.971Z,48.76
2017-04-09T10:26:45.801Z,47.84
2017-04-09T10:27:43.716Z,51.96
2017-04-09T10:28:41.553Z,50.43
2017-04-09T10:29:39.515Z,49.64
2017-04-09T10:30:37.325Z,47.70
2017-04-09T10:31:35.160Z,48.14
2017-04-09T10:32:33.514Z,47.67
2017-04-09T10:33:31.391Z,49.03
2017-04-09T10:34:29.188Z,48.87
2017-04-09T10:35:27.048Z,48.19
2017-04-09T10:36:24.873Z,45.73
2017-04-09T10:37:22.675Z,47.29
2017-04-09T10:38:20.465Z,44.56
2017-04-09T10:39:18.312Z,47.70
2017-04-09T10:40:16.172Z,44.67
2017-04-09T10:41:14.071Z,47.70
2017-04-09T10:42:11.952Z,48.20
2017-04-09T10:43:09.869Z,47.49
2017-04-09T10:44:07.716Z,45.97
2017-04-09T10:45:05.618Z,46.17
2017-04-09T10:46:03.499Z,44.40
2017-04-09T10:47:01.317Z,45.51
2017-04-09T10:47:59.356Z,43.83
2017-04-09T10:48:57.145Z,43.26
2017-04-09T10:49:55.195Z,45.10
2017-04-09T10:50:54.393Z,44.21
2017-04-09T10:51:52.231Z,45.79
2017-04-09T10:52:50.234Z,45.84
2017-04-09T10:53:48.086Z,48.00
2017-04-09T10:54:45.847Z,48.06
2017-04-09T10:55:43.876Z,47.00
2017-04-09T10:56:41.735Z,44.70
2017-04-09T10:57:39.575Z,45.64
2017-04-09T10:58:37.387Z,44.41
2017-04-09T10:59:35.222Z,44.81
2017-04-09T11:00:33.265Z,43.80
2017-04-09T11:01:31.107Z,47.20
2017-04-09T11:02:29.047Z,48.17
2017-04-09T11:03:26.890Z,43.81
2017-04-09T11:04:24.865Z,46.83
2017-04-09T11:05:22.684Z,45.11
2017-04-09T11:06:20.658Z,45.84
2017-04-09T11:07:18.545Z,42.50
2017-04-09T11:08:16.398Z,44.23
2017-04-09T11:09:14.320Z,43.40
2017-04-09T11:10:12.177Z,44.10
2017-04-09T11:11:10.100Z,45.87
2017-04-09T11:12:07.936Z,43.46
2017-04-09T11:13:05.887Z,44.97
2017-04-09T11:14:03.751Z,43.01
2017-04-09T11:15:01.592Z,42.09
2017-04-09T11:15:59.536Z,45.54
2017-04-09T11:16:57.350Z,42.97
2017-04-09T11:17:55.324Z,42.60
2017-04-09T11:18:53.120Z,44.43
2017-04-09T11:19:51.152Z,42.07
2017-04-09T11:20:49.023Z,42.27
2017-04-09T11:21:46.873Z,45.27
2017-04-09T11:22:44.756Z,45.47
2017-04-09T11:23:42.599Z,43.87
2017-04-09T11:24:40.540Z,41.77
2017-04-09T11:25:38.397Z,42.16
2017-04-09T11:26:36.321Z,39.33
2017-04-09T11:27:34.177Z,44.49
2017-04-09T11:28:32.027Z,41.97
2017-04-09T11:29:29.978Z,42.84
2017-04-09T11:30:27.779Z,37.41
2017-04-09T11:31:25.778Z,42.69
2017-04-09T11:32:23.616Z,39.70
2017-04-09T11:33:21.528Z,42.70
2017-04-09T11:34:19.535Z,42.00
2017-04-09T11:35:17.347Z,41.89
2017-04-09T11:36:15.199Z,40.71
2017-04-09T11:37:13.085Z,38.51
2017-04-09T11:38:10.917Z,40.24
2017-04-09T11:39:08.760Z,41.04
2017-04-09T11:40:06.704Z,41.00
2017-04-09T11:41:04.543Z,38.53
2017-04-09T11:42:02.341Z,39.61
2017-04-09T11:43:00.308Z,41.36
2017-04-09T11:45:12.808Z,38.03
2017-04-09T11:46:10.657Z,40.81
2017-04-09T11:47:08.523Z,38.11
2017-04-09T11:48:06.362Z,38.19
2017-04-09T11:49:04.180Z,38.87
2017-04-09T11:50:02.031Z,37.76
2017-04-09T11:50:59.820Z,35.73
2017-04-09T11:51:57.707Z,39.01
2017-04-09T11:52:55.574Z,35.63
2017-04-09T11:53:53.440Z,40.09
2017-04-09T11:54:51.320Z,40.44
2017-04-09T11:55:49.200Z,38.19
2017-04-09T11:56:47.097Z,40.20
2017-04-09T11:57:44.982Z,36.93
2017-04-09T11:58:42.844Z,38.80
2017-04-09T11:59:40.675Z,37.34
2017-04-09T12:00:38.541Z,39.07
2017-04-09T12:01:36.609Z,36.56
2017-04-09T12:02:34.488Z,35.30
2017-04-09T12:03:32.347Z,37.03
2017-04-09T12:04:30.248Z,38.90
2017-04-09T12:05:28.059Z,36.39
2017-04-09T12:06:25.904Z,36.86
2017-04-09T12:07:23.794Z,36.74
2017-04-09T12:08:21.672Z,38.01
2017-04-09T12:09:19.576Z,36.96
2017-04-09T12:10:17.413Z,36.21
2017-04-09T12:11:15.236Z,34.91
2017-04-09T12:12:13.258Z,35.07
2017-04-09T12:13:11.138Z,35.29
2017-04-09T12:14:09.012Z,34.79
2017-04-09T12:15:06.898Z,35.60
2017-04-09T12:16:04.753Z,34.30
2017-04-09T12:17:02.730Z,33.86
2017-04-09T12:18:00.627Z,33.96
2017-04-09T12:18:58.528Z,35.34
2017-04-09T12:19:56.381Z,34.26
2017-04-09T12:20:54.203Z,33.01
2017-04-09T12:21:52.232Z,33.43
2017-04-09T12:22:50.088Z,35.19
2017-04-09T12:23:48.030Z,35.59
2017-04-09T12:24:45.896Z,36.30
2017-04-09T12:25:43.780Z,34.34
2017-04-09T12:26:41.696Z,36.17
2017-04-09T12:27:39.548Z,35.56
2017-04-09T12:28:37.475Z,33.97
2017-04-09T12:29:35.324Z,35.19